sensor_id;sensor_type;location;lat;lon;timestamp;temperature;humidity
40374;DHT22;26079;45.958;12.492;2023-09-07T00:01:51;19.50;91.70
40374;DHT22;26079;45.958;12.492;2023-09-07T00:04:19;19.50;91.70
40374;DHT22;26079;45.958;12.492;2023-09-07T00:06:45;19.50;92.00
40374;DHT22;26079;45.958;12.492;2023-09-07T00:09:11;19.50;92.80
40374;DHT22;26079;45.958;12.492;2023-09-07T00:11:37;19.50;92.60
40374;DHT22;26079;45.958;12.492;2023-09-07T00:14:03;19.40;92.70
40374;DHT22;26079;45.958;12.492;2023-09-07T00:16:31;19.40;92.40
40374;DHT22;26079;45.958;12.492;2023-09-07T00:19:00;19.40;91.90
40374;DHT22;26079;45.958;12.492;2023-09-07T00:21:27;19.50;92.10
40374;DHT22;26079;45.958;12.492;2023-09-07T00:23:53;19.50;92.50
40374;DHT22;26079;45.958;12.492;2023-09-07T00:26:20;19.50;92.10
40374;DHT22;26079;45.958;12.492;2023-09-07T00:28:46;19.50;92.50
40374;DHT22;26079;45.958;12.492;2023-09-07T00:31:12;19.50;92.80
40374;DHT22;26079;45.958;12.492;2023-09-07T00:33:37;19.40;92.70
40374;DHT22;26079;45.958;12.492;2023-09-07T00:36:03;19.40;93.20
40374;DHT22;26079;45.958;12.492;2023-09-07T00:38:29;19.40;93.50
40374;DHT22;26079;45.958;12.492;2023-09-07T00:40:55;19.40;94.30
40374;DHT22;26079;45.958;12.492;2023-09-07T00:43:20;19.30;93.40
40374;DHT22;26079;45.958;12.492;2023-09-07T00:45:46;19.40;93.40
40374;DHT22;26079;45.958;12.492;2023-09-07T00:48:14;19.30;94.30
40374;DHT22;26079;45.958;12.492;2023-09-07T00:50:41;19.30;94.40
40374;DHT22;26079;45.958;12.492;2023-09-07T00:53:07;19.30;94.10
40374;DHT22;26079;45.958;12.492;2023-09-07T00:55:33;19.30;93.70
40374;DHT22;26079;45.958;12.492;2023-09-07T00:58:01;19.30;94.30
40374;DHT22;26079;45.958;12.492;2023-09-07T01:00:27;19.30;94.40
40374;DHT22;26079;45.958;12.492;2023-09-07T01:02:52;19.20;94.50
40374;DHT22;26079;45.958;12.492;2023-09-07T01:05:20;19.20;94.50
40374;DHT22;26079;45.958;12.492;2023-09-07T01:07:54;19.20;94.50
40374;DHT22;26079;45.958;12.492;2023-09-07T01:10:22;19.20;94.90
40374;DHT22;26079;45.958;12.492;2023-09-07T01:12:48;19.20;95.30
40374;DHT22;26079;45.958;12.492;2023-09-07T01:15:14;19.10;95.20
40374;DHT22;26079;45.958;12.492;2023-09-07T01:17:40;19.20;93.30
40374;DHT22;26079;45.958;12.492;2023-09-07T01:20:07;19.20;94.80
40374;DHT22;26079;45.958;12.492;2023-09-07T01:22:36;19.20;94.90
40374;DHT22;26079;45.958;12.492;2023-09-07T01:25:04;19.10;94.60
40374;DHT22;26079;45.958;12.492;2023-09-07T01:27:30;19.10;95.20
40374;DHT22;26079;45.958;12.492;2023-09-07T01:29:56;19.10;95.10
40374;DHT22;26079;45.958;12.492;2023-09-07T01:32:22;19.10;95.10
40374;DHT22;26079;45.958;12.492;2023-09-07T01:34:49;19.00;95.20
40374;DHT22;26079;45.958;12.492;2023-09-07T01:37:15;19.00;95.70
40374;DHT22;26079;45.958;12.492;2023-09-07T01:39:40;18.90;96.00
40374;DHT22;26079;45.958;12.492;2023-09-07T01:42:06;18.90;96.40
40374;DHT22;26079;45.958;12.492;2023-09-07T01:44:32;18.90;96.10
40374;DHT22;26079;45.958;12.492;2023-09-07T01:46:57;18.80;96.60
40374;DHT22;26079;45.958;12.492;2023-09-07T01:49:23;18.80;96.80
40374;DHT22;26079;45.958;12.492;2023-09-07T01:51:51;18.80;96.50
40374;DHT22;26079;45.958;12.492;2023-09-07T01:54:17;18.70;97.00
40374;DHT22;26079;45.958;12.492;2023-09-07T01:56:42;18.60;97.40
40374;DHT22;26079;45.958;12.492;2023-09-07T01:59:08;18.60;97.60
40374;DHT22;26079;45.958;12.492;2023-09-07T02:01:34;18.60;97.70
40374;DHT22;26079;45.958;12.492;2023-09-07T02:04:02;18.60;97.90
40374;DHT22;26079;45.958;12.492;2023-09-07T02:06:28;18.60;97.90
40374;DHT22;26079;45.958;12.492;2023-09-07T02:08:54;18.50;98.10
40374;DHT22;26079;45.958;12.492;2023-09-07T02:11:19;18.50;98.30
40374;DHT22;26079;45.958;12.492;2023-09-07T02:13:47;18.40;98.80
40374;DHT22;26079;45.958;12.492;2023-09-07T02:16:13;18.40;98.70
40374;DHT22;26079;45.958;12.492;2023-09-07T02:18:38;18.40;98.90
40374;DHT22;26079;45.958;12.492;2023-09-07T02:21:09;18.40;99.10
40374;DHT22;26079;45.958;12.492;2023-09-07T02:23:34;18.30;99.40
40374;DHT22;26079;45.958;12.492;2023-09-07T02:26:02;18.20;99.80
40374;DHT22;26079;45.958;12.492;2023-09-07T02:28:27;18.20;99.20
40374;DHT22;26079;45.958;12.492;2023-09-07T02:30:53;18.10;99.60
40374;DHT22;26079;45.958;12.492;2023-09-07T02:33:19;18.10;99.90
40374;DHT22;26079;45.958;12.492;2023-09-07T02:35:45;18.10;99.90
40374;DHT22;26079;45.958;12.492;2023-09-07T02:38:10;18.00;99.90
40374;DHT22;26079;45.958;12.492;2023-09-07T02:40:42;18.00;99.90
40374;DHT22;26079;45.958;12.492;2023-09-07T02:43:09;18.10;99.90
40374;DHT22;26079;45.958;12.492;2023-09-07T02:45:35;18.10;99.90
40374;DHT22;26079;45.958;12.492;2023-09-07T02:48:01;18.10;99.90
40374;DHT22;26079;45.958;12.492;2023-09-07T02:50:29;18.10;99.70
40374;DHT22;26079;45.958;12.492;2023-09-07T02:52:55;18.00;99.40
40374;DHT22;26079;45.958;12.492;2023-09-07T02:55:20;18.10;99.90
40374;DHT22;26079;45.958;12.492;2023-09-07T02:57:46;18.10;99.60
40374;DHT22;26079;45.958;12.492;2023-09-07T03:00:12;18.10;98.10
40374;DHT22;26079;45.958;12.492;2023-09-07T03:02:37;18.20;97.90
40374;DHT22;26079;45.958;12.492;2023-09-07T03:05:03;18.30;97.80
40374;DHT22;26079;45.958;12.492;2023-09-07T03:07:33;18.30;98.30
40374;DHT22;26079;45.958;12.492;2023-09-07T03:09:59;18.30;97.80
40374;DHT22;26079;45.958;12.492;2023-09-07T03:12:25;18.30;98.00
40374;DHT22;26079;45.958;12.492;2023-09-07T03:14:51;18.20;98.40
40374;DHT22;26079;45.958;12.492;2023-09-07T03:17:17;18.20;98.40
40374;DHT22;26079;45.958;12.492;2023-09-07T03:19:42;18.20;98.40
40374;DHT22;26079;45.958;12.492;2023-09-07T03:22:08;18.10;98.20
40374;DHT22;26079;45.958;12.492;2023-09-07T03:24:34;18.10;98.50
40374;DHT22;26079;45.958;12.492;2023-09-07T03:27:00;18.10;98.50
40374;DHT22;26079;45.958;12.492;2023-09-07T03:29:26;18.10;98.80
40374;DHT22;26079;45.958;12.492;2023-09-07T03:31:51;18.10;98.20
40374;DHT22;26079;45.958;12.492;2023-09-07T03:34:17;18.00;98.60
40374;DHT22;26079;45.958;12.492;2023-09-07T03:36:43;17.90;98.70
40374;DHT22;26079;45.958;12.492;2023-09-07T03:39:09;17.80;99.00
40374;DHT22;26079;45.958;12.492;2023-09-07T03:41:35;17.70;99.30
40374;DHT22;26079;45.958;12.492;2023-09-07T03:44:01;17.70;99.80
40374;DHT22;26079;45.958;12.492;2023-09-07T03:46:27;17.70;99.40
40374;DHT22;26079;45.958;12.492;2023-09-07T03:48:53;17.60;99.50
40374;DHT22;26079;45.958;12.492;2023-09-07T03:51:18;17.50;99.70
40374;DHT22;26079;45.958;12.492;2023-09-07T03:53:44;17.50;99.90
40374;DHT22;26079;45.958;12.492;2023-09-07T03:56:10;17.40;99.90
40374;DHT22;26079;45.958;12.492;2023-09-07T03:58:35;17.40;99.90
40374;DHT22;26079;45.958;12.492;2023-09-07T04:01:01;17.30;99.90
40374;DHT22;26079;45.958;12.492;2023-09-07T04:03:26;17.30;99.90
40374;DHT22;26079;45.958;12.492;2023-09-07T04:05:52;17.30;99.90
40374;DHT22;26079;45.958;12.492;2023-09-07T04:08:18;17.30;99.90
40374;DHT22;26079;45.958;12.492;2023-09-07T04:10:44;17.30;99.90
40374;DHT22;26079;45.958;12.492;2023-09-07T04:13:09;17.30;99.90
40374;DHT22;26079;45.958;12.492;2023-09-07T04:15:41;17.30;99.90
40374;DHT22;26079;45.958;12.492;2023-09-07T04:18:07;17.30;99.90
40374;DHT22;26079;45.958;12.492;2023-09-07T04:20:33;17.30;99.90
40374;DHT22;26079;45.958;12.492;2023-09-07T04:22:59;17.20;99.90
40374;DHT22;26079;45.958;12.492;2023-09-07T04:25:25;17.20;99.90
40374;DHT22;26079;45.958;12.492;2023-09-07T04:27:51;17.20;99.90
40374;DHT22;26079;45.958;12.492;2023-09-07T04:30:17;17.20;99.90
40374;DHT22;26079;45.958;12.492;2023-09-07T04:32:42;17.10;99.90
40374;DHT22;26079;45.958;12.492;2023-09-07T04:35:08;17.20;99.90
40374;DHT22;26079;45.958;12.492;2023-09-07T04:37:34;17.20;99.90
40374;DHT22;26079;45.958;12.492;2023-09-07T04:40:00;17.20;99.90
40374;DHT22;26079;45.958;12.492;2023-09-07T04:42:25;17.10;99.90
40374;DHT22;26079;45.958;12.492;2023-09-07T04:44:51;17.10;99.90
40374;DHT22;26079;45.958;12.492;2023-09-07T04:47:17;17.00;99.90
40374;DHT22;26079;45.958;12.492;2023-09-07T04:49:42;17.00;99.90
40374;DHT22;26079;45.958;12.492;2023-09-07T04:52:13;17.00;99.90
40374;DHT22;26079;45.958;12.492;2023-09-07T04:54:39;16.90;99.90
40374;DHT22;26079;45.958;12.492;2023-09-07T04:57:04;16.90;99.90
40374;DHT22;26079;45.958;12.492;2023-09-07T04:59:30;16.90;99.90
40374;DHT22;26079;45.958;12.492;2023-09-07T05:01:59;16.90;99.90
40374;DHT22;26079;45.958;12.492;2023-09-07T05:04:26;16.90;99.90
40374;DHT22;26079;45.958;12.492;2023-09-07T05:06:51;17.00;99.90
40374;DHT22;26079;45.958;12.492;2023-09-07T05:09:17;17.10;99.90
40374;DHT22;26079;45.958;12.492;2023-09-07T05:11:43;17.10;99.90
40374;DHT22;26079;45.958;12.492;2023-09-07T05:14:08;17.10;99.90
40374;DHT22;26079;45.958;12.492;2023-09-07T05:16:34;17.20;99.90
40374;DHT22;26079;45.958;12.492;2023-09-07T05:18:59;17.30;99.90
40374;DHT22;26079;45.958;12.492;2023-09-07T05:21:25;17.40;99.90
40374;DHT22;26079;45.958;12.492;2023-09-07T05:23:51;17.50;99.90
40374;DHT22;26079;45.958;12.492;2023-09-07T05:26:21;17.60;99.90
40374;DHT22;26079;45.958;12.492;2023-09-07T05:28:49;17.60;99.90
40374;DHT22;26079;45.958;12.492;2023-09-07T05:31:15;17.70;99.90
40374;DHT22;26079;45.958;12.492;2023-09-07T05:33:40;17.80;99.90
40374;DHT22;26079;45.958;12.492;2023-09-07T05:36:06;17.90;99.90
40374;DHT22;26079;45.958;12.492;2023-09-07T05:38:32;17.90;99.90
40374;DHT22;26079;45.958;12.492;2023-09-07T05:40:57;18.00;99.90
40374;DHT22;26079;45.958;12.492;2023-09-07T05:43:23;18.00;99.90
40374;DHT22;26079;45.958;12.492;2023-09-07T05:45:49;18.10;99.90
40374;DHT22;26079;45.958;12.492;2023-09-07T05:48:15;18.20;99.60
40374;DHT22;26079;45.958;12.492;2023-09-07T05:50:44;18.20;99.50
40374;DHT22;26079;45.958;12.492;2023-09-07T05:53:10;18.20;99.50
40374;DHT22;26079;45.958;12.492;2023-09-07T05:55:35;18.20;99.90
40374;DHT22;26079;45.958;12.492;2023-09-07T05:58:05;19.00;98.90
40374;DHT22;26079;45.958;12.492;2023-09-07T06:00:31;20.10;95.30
40374;DHT22;26079;45.958;12.492;2023-09-07T06:02:57;21.50;91.30
40374;DHT22;26079;45.958;12.492;2023-09-07T06:05:23;22.50;89.40
40374;DHT22;26079;45.958;12.492;2023-09-07T06:07:48;22.90;85.90
40374;DHT22;26079;45.958;12.492;2023-09-07T06:10:14;22.70;87.80
40374;DHT22;26079;45.958;12.492;2023-09-07T06:12:41;22.40;89.00
40374;DHT22;26079;45.958;12.492;2023-09-07T06:15:07;21.90;86.30
40374;DHT22;26079;45.958;12.492;2023-09-07T06:17:33;21.30;87.80
40374;DHT22;26079;45.958;12.492;2023-09-07T06:19:59;20.90;91.10
40374;DHT22;26079;45.958;12.492;2023-09-07T06:22:24;20.70;91.40
40374;DHT22;26079;45.958;12.492;2023-09-07T06:24:50;20.50;93.30
40374;DHT22;26079;45.958;12.492;2023-09-07T06:27:15;20.50;93.10
40374;DHT22;26079;45.958;12.492;2023-09-07T06:29:41;20.50;93.90
40374;DHT22;26079;45.958;12.492;2023-09-07T06:32:07;20.50;94.10
40374;DHT22;26079;45.958;12.492;2023-09-07T06:34:33;20.60;94.90
40374;DHT22;26079;45.958;12.492;2023-09-07T06:36:58;20.60;93.90
40374;DHT22;26079;45.958;12.492;2023-09-07T06:39:24;20.80;92.80
40374;DHT22;26079;45.958;12.492;2023-09-07T06:41:50;20.90;94.10
40374;DHT22;26079;45.958;12.492;2023-09-07T06:44:16;21.00;94.60
40374;DHT22;26079;45.958;12.492;2023-09-07T06:46:41;21.10;94.40
40374;DHT22;26079;45.958;12.492;2023-09-07T06:49:07;21.20;94.10
40374;DHT22;26079;45.958;12.492;2023-09-07T06:51:33;21.20;93.70
40374;DHT22;26079;45.958;12.492;2023-09-07T06:53:59;21.40;94.70
40374;DHT22;26079;45.958;12.492;2023-09-07T06:56:25;21.50;93.00
40374;DHT22;26079;45.958;12.492;2023-09-07T06:58:52;21.70;92.10
40374;DHT22;26079;45.958;12.492;2023-09-07T07:01:18;21.90;92.30
40374;DHT22;26079;45.958;12.492;2023-09-07T07:03:44;22.00;93.20
40374;DHT22;26079;45.958;12.492;2023-09-07T07:06:09;22.20;90.50
40374;DHT22;26079;45.958;12.492;2023-09-07T07:08:35;22.50;89.00
40374;DHT22;26079;45.958;12.492;2023-09-07T07:11:01;22.80;90.00
40374;DHT22;26079;45.958;12.492;2023-09-07T07:13:26;22.90;89.50
40374;DHT22;26079;45.958;12.492;2023-09-07T07:15:52;23.10;88.40
40374;DHT22;26079;45.958;12.492;2023-09-07T07:18:18;23.30;87.20
40374;DHT22;26079;45.958;12.492;2023-09-07T07:20:44;23.50;87.50
40374;DHT22;26079;45.958;12.492;2023-09-07T07:23:10;23.50;86.90
40374;DHT22;26079;45.958;12.492;2023-09-07T07:25:36;23.60;88.30
40374;DHT22;26079;45.958;12.492;2023-09-07T07:28:06;23.60;84.90
40374;DHT22;26079;45.958;12.492;2023-09-07T07:30:37;23.70;84.70
40374;DHT22;26079;45.958;12.492;2023-09-07T07:33:03;23.80;85.50
40374;DHT22;26079;45.958;12.492;2023-09-07T07:35:30;23.90;86.10
40374;DHT22;26079;45.958;12.492;2023-09-07T07:37:56;24.00;83.80
40374;DHT22;26079;45.958;12.492;2023-09-07T07:40:22;24.20;82.60
40374;DHT22;26079;45.958;12.492;2023-09-07T07:42:48;24.30;80.40
40374;DHT22;26079;45.958;12.492;2023-09-07T07:45:14;24.50;80.00
40374;DHT22;26079;45.958;12.492;2023-09-07T07:47:40;24.50;79.30
40374;DHT22;26079;45.958;12.492;2023-09-07T07:50:06;24.60;81.30
40374;DHT22;26079;45.958;12.492;2023-09-07T07:52:32;24.60;81.80
40374;DHT22;26079;45.958;12.492;2023-09-07T07:54:59;24.50;78.10
40374;DHT22;26079;45.958;12.492;2023-09-07T07:57:24;24.60;78.40
40374;DHT22;26079;45.958;12.492;2023-09-07T07:59:50;24.80;74.30
40374;DHT22;26079;45.958;12.492;2023-09-07T08:02:16;25.00;72.30
40374;DHT22;26079;45.958;12.492;2023-09-07T08:04:41;25.10;74.30
40374;DHT22;26079;45.958;12.492;2023-09-07T08:07:07;25.20;74.00
40374;DHT22;26079;45.958;12.492;2023-09-07T08:09:34;25.20;73.50
40374;DHT22;26079;45.958;12.492;2023-09-07T08:12:00;25.30;73.50
40374;DHT22;26079;45.958;12.492;2023-09-07T08:14:29;25.40;72.80
40374;DHT22;26079;45.958;12.492;2023-09-07T08:16:55;25.50;73.40
40374;DHT22;26079;45.958;12.492;2023-09-07T08:19:20;25.60;72.20
40374;DHT22;26079;45.958;12.492;2023-09-07T08:21:46;25.80;71.00
40374;DHT22;26079;45.958;12.492;2023-09-07T08:24:12;25.80;68.80
40374;DHT22;26079;45.958;12.492;2023-09-07T08:26:38;25.90;70.20
40374;DHT22;26079;45.958;12.492;2023-09-07T08:29:04;26.00;70.20
40374;DHT22;26079;45.958;12.492;2023-09-07T08:31:35;26.20;67.90
40374;DHT22;26079;45.958;12.492;2023-09-07T08:34:01;26.20;68.80
40374;DHT22;26079;45.958;12.492;2023-09-07T08:36:29;26.20;67.20
40374;DHT22;26079;45.958;12.492;2023-09-07T08:38:58;26.20;67.40
40374;DHT22;26079;45.958;12.492;2023-09-07T08:41:26;26.30;67.80
40374;DHT22;26079;45.958;12.492;2023-09-07T08:43:54;26.40;68.00
40374;DHT22;26079;45.958;12.492;2023-09-07T08:46:22;26.40;68.40
40374;DHT22;26079;45.958;12.492;2023-09-07T08:48:52;26.30;68.20
40374;DHT22;26079;45.958;12.492;2023-09-07T08:51:19;26.30;67.80
40374;DHT22;26079;45.958;12.492;2023-09-07T08:53:45;26.30;68.90
40374;DHT22;26079;45.958;12.492;2023-09-07T08:56:15;26.30;68.00
40374;DHT22;26079;45.958;12.492;2023-09-07T08:58:41;26.40;67.40
40374;DHT22;26079;45.958;12.492;2023-09-07T09:01:07;26.50;67.10
40374;DHT22;26079;45.958;12.492;2023-09-07T09:03:35;26.50;67.70
40374;DHT22;26079;45.958;12.492;2023-09-07T09:06:01;26.50;67.60
40374;DHT22;26079;45.958;12.492;2023-09-07T09:08:51;26.60;66.20
40374;DHT22;26079;45.958;12.492;2023-09-07T09:11:18;26.50;66.50
40374;DHT22;26079;45.958;12.492;2023-09-07T09:13:44;26.60;66.20
40374;DHT22;26079;45.958;12.492;2023-09-07T09:16:10;26.60;65.40
40374;DHT22;26079;45.958;12.492;2023-09-07T09:18:36;26.60;66.30
40374;DHT22;26079;45.958;12.492;2023-09-07T09:21:03;26.60;65.80
40374;DHT22;26079;45.958;12.492;2023-09-07T09:23:35;26.70;65.00
40374;DHT22;26079;45.958;12.492;2023-09-07T09:26:03;26.80;64.70
40374;DHT22;26079;45.958;12.492;2023-09-07T09:28:34;26.80;64.60
40374;DHT22;26079;45.958;12.492;2023-09-07T09:31:03;26.80;65.90
40374;DHT22;26079;45.958;12.492;2023-09-07T09:33:32;26.80;64.40
40374;DHT22;26079;45.958;12.492;2023-09-07T09:36:00;26.60;66.10
40374;DHT22;26079;45.958;12.492;2023-09-07T09:38:26;26.60;66.00
40374;DHT22;26079;45.958;12.492;2023-09-07T09:40:52;26.80;65.40
40374;DHT22;26079;45.958;12.492;2023-09-07T09:43:20;26.80;64.90
40374;DHT22;26079;45.958;12.492;2023-09-07T09:45:46;26.80;65.10
40374;DHT22;26079;45.958;12.492;2023-09-07T09:48:12;26.70;66.80
40374;DHT22;26079;45.958;12.492;2023-09-07T09:50:40;26.70;66.10
40374;DHT22;26079;45.958;12.492;2023-09-07T09:53:06;26.80;66.80
40374;DHT22;26079;45.958;12.492;2023-09-07T09:55:33;26.80;68.40
40374;DHT22;26079;45.958;12.492;2023-09-07T09:57:59;26.80;67.70
40374;DHT22;26079;45.958;12.492;2023-09-07T10:00:25;26.80;65.30
40374;DHT22;26079;45.958;12.492;2023-09-07T10:03:12;26.90;65.50
40374;DHT22;26079;45.958;12.492;2023-09-07T10:05:39;27.00;66.60
40374;DHT22;26079;45.958;12.492;2023-09-07T10:08:23;27.00;66.50
40374;DHT22;26079;45.958;12.492;2023-09-07T10:10:52;27.00;66.60
40374;DHT22;26079;45.958;12.492;2023-09-07T10:13:32;27.00;67.60
40374;DHT22;26079;45.958;12.492;2023-09-07T10:16:03;27.20;66.10
40374;DHT22;26079;45.958;12.492;2023-09-07T10:18:39;27.20;65.50
40374;DHT22;26079;45.958;12.492;2023-09-07T10:21:05;27.30;65.50
40374;DHT22;26079;45.958;12.492;2023-09-07T10:23:42;27.30;65.40
40374;DHT22;26079;45.958;12.492;2023-09-07T10:26:15;27.50;64.20
40374;DHT22;26079;45.958;12.492;2023-09-07T10:28:41;27.50;63.60
40374;DHT22;26079;45.958;12.492;2023-09-07T10:31:14;27.60;62.70
40374;DHT22;26079;45.958;12.492;2023-09-07T10:33:40;27.60;63.40
40374;DHT22;26079;45.958;12.492;2023-09-07T10:36:23;27.60;62.40
40374;DHT22;26079;45.958;12.492;2023-09-07T10:38:53;27.50;63.10
40374;DHT22;26079;45.958;12.492;2023-09-07T10:41:19;27.60;63.40
40374;DHT22;26079;45.958;12.492;2023-09-07T10:43:53;27.60;63.00
40374;DHT22;26079;45.958;12.492;2023-09-07T10:46:25;27.70;62.10
40374;DHT22;26079;45.958;12.492;2023-09-07T10:48:52;27.70;61.10
40374;DHT22;26079;45.958;12.492;2023-09-07T10:51:21;27.70;61.60
40374;DHT22;26079;45.958;12.492;2023-09-07T10:53:47;27.70;61.70
40374;DHT22;26079;45.958;12.492;2023-09-07T10:56:13;27.70;60.90
40374;DHT22;26079;45.958;12.492;2023-09-07T10:58:40;27.70;61.10
40374;DHT22;26079;45.958;12.492;2023-09-07T11:01:10;27.70;62.90
40374;DHT22;26079;45.958;12.492;2023-09-07T11:03:40;27.90;61.90
40374;DHT22;26079;45.958;12.492;2023-09-07T11:06:12;27.80;61.80
40374;DHT22;26079;45.958;12.492;2023-09-07T11:08:39;27.70;62.00
40374;DHT22;26079;45.958;12.492;2023-09-07T11:11:05;27.80;62.90
40374;DHT22;26079;45.958;12.492;2023-09-07T11:13:31;27.90;62.30
40374;DHT22;26079;45.958;12.492;2023-09-07T11:15:58;27.90;62.50
40374;DHT22;26079;45.958;12.492;2023-09-07T11:18:24;27.90;61.60
40374;DHT22;26079;45.958;12.492;2023-09-07T11:20:52;28.00;61.20
40374;DHT22;26079;45.958;12.492;2023-09-07T11:23:19;27.90;61.70
40374;DHT22;26079;45.958;12.492;2023-09-07T11:25:47;27.90;62.70
40374;DHT22;26079;45.958;12.492;2023-09-07T11:28:14;27.90;62.50
40374;DHT22;26079;45.958;12.492;2023-09-07T11:30:54;27.90;62.00
40374;DHT22;26079;45.958;12.492;2023-09-07T11:33:22;27.90;62.80
40374;DHT22;26079;45.958;12.492;2023-09-07T11:35:47;28.00;63.70
40374;DHT22;26079;45.958;12.492;2023-09-07T11:38:17;28.00;63.90
40374;DHT22;26079;45.958;12.492;2023-09-07T11:40:44;27.90;63.30
40374;DHT22;26079;45.958;12.492;2023-09-07T11:43:13;28.00;62.30
40374;DHT22;26079;45.958;12.492;2023-09-07T11:45:40;28.00;62.10
40374;DHT22;26079;45.958;12.492;2023-09-07T11:48:07;27.90;61.00
40374;DHT22;26079;45.958;12.492;2023-09-07T11:50:35;27.90;61.80
40374;DHT22;26079;45.958;12.492;2023-09-07T11:53:01;27.80;63.50
40374;DHT22;26079;45.958;12.492;2023-09-07T11:55:26;27.80;62.10
40374;DHT22;26079;45.958;12.492;2023-09-07T11:57:55;27.70;63.20
40374;DHT22;26079;45.958;12.492;2023-09-07T12:00:23;27.80;62.40
40374;DHT22;26079;45.958;12.492;2023-09-07T12:02:49;27.90;62.20
40374;DHT22;26079;45.958;12.492;2023-09-07T12:05:15;28.10;62.70
40374;DHT22;26079;45.958;12.492;2023-09-07T12:07:42;28.20;61.50
40374;DHT22;26079;45.958;12.492;2023-09-07T12:10:09;28.20;62.10
40374;DHT22;26079;45.958;12.492;2023-09-07T12:12:39;28.30;61.00
40374;DHT22;26079;45.958;12.492;2023-09-07T12:15:11;28.30;61.80
40374;DHT22;26079;45.958;12.492;2023-09-07T12:17:37;28.40;60.80
40374;DHT22;26079;45.958;12.492;2023-09-07T12:20:03;28.50;59.90
40374;DHT22;26079;45.958;12.492;2023-09-07T12:22:38;28.50;61.20
40374;DHT22;26079;45.958;12.492;2023-09-07T12:25:05;28.50;60.90
40374;DHT22;26079;45.958;12.492;2023-09-07T12:27:36;28.50;60.60
40374;DHT22;26079;45.958;12.492;2023-09-07T12:30:05;28.60;58.50
40374;DHT22;26079;45.958;12.492;2023-09-07T12:32:37;28.60;58.90
40374;DHT22;26079;45.958;12.492;2023-09-07T12:35:02;28.70;61.20
40374;DHT22;26079;45.958;12.492;2023-09-07T12:37:33;28.70;59.80
40374;DHT22;26079;45.958;12.492;2023-09-07T12:39:59;28.70;58.80
40374;DHT22;26079;45.958;12.492;2023-09-07T12:42:24;28.70;59.90
40374;DHT22;26079;45.958;12.492;2023-09-07T12:44:50;28.60;59.50
40374;DHT22;26079;45.958;12.492;2023-09-07T12:47:15;28.60;59.60
40374;DHT22;26079;45.958;12.492;2023-09-07T12:49:42;28.60;61.00
40374;DHT22;26079;45.958;12.492;2023-09-07T12:52:07;28.60;57.30
40374;DHT22;26079;45.958;12.492;2023-09-07T12:54:38;28.60;58.10
40374;DHT22;26079;45.958;12.492;2023-09-07T12:57:06;28.70;58.10
40374;DHT22;26079;45.958;12.492;2023-09-07T12:59:31;28.70;58.60
40374;DHT22;26079;45.958;12.492;2023-09-07T13:01:57;28.60;58.70
40374;DHT22;26079;45.958;12.492;2023-09-07T13:04:23;28.70;59.20
40374;DHT22;26079;45.958;12.492;2023-09-07T13:06:48;28.70;58.70
40374;DHT22;26079;45.958;12.492;2023-09-07T13:09:14;28.70;60.60
40374;DHT22;26079;45.958;12.492;2023-09-07T13:11:40;28.60;59.10
40374;DHT22;26079;45.958;12.492;2023-09-07T13:14:06;28.70;58.30
40374;DHT22;26079;45.958;12.492;2023-09-07T13:16:33;28.70;57.50
40374;DHT22;26079;45.958;12.492;2023-09-07T13:18:59;28.70;57.80
40374;DHT22;26079;45.958;12.492;2023-09-07T13:21:25;28.80;57.20
40374;DHT22;26079;45.958;12.492;2023-09-07T13:23:51;28.90;56.70
40374;DHT22;26079;45.958;12.492;2023-09-07T13:26:16;28.80;57.00
40374;DHT22;26079;45.958;12.492;2023-09-07T13:28:42;28.90;57.20
40374;DHT22;26079;45.958;12.492;2023-09-07T13:31:08;29.00;56.10
40374;DHT22;26079;45.958;12.492;2023-09-07T13:33:33;29.10;57.90
40374;DHT22;26079;45.958;12.492;2023-09-07T13:35:59;29.00;57.10
40374;DHT22;26079;45.958;12.492;2023-09-07T13:38:25;29.00;57.80
40374;DHT22;26079;45.958;12.492;2023-09-07T13:40:50;29.00;58.00
40374;DHT22;26079;45.958;12.492;2023-09-07T13:43:16;29.00;57.50
40374;DHT22;26079;45.958;12.492;2023-09-07T13:45:42;29.00;58.10
40374;DHT22;26079;45.958;12.492;2023-09-07T13:48:12;29.00;57.50
40374;DHT22;26079;45.958;12.492;2023-09-07T13:50:39;28.90;57.00
40374;DHT22;26079;45.958;12.492;2023-09-07T13:53:05;28.90;57.30
40374;DHT22;26079;45.958;12.492;2023-09-07T13:55:30;29.00;57.90
40374;DHT22;26079;45.958;12.492;2023-09-07T13:57:56;29.10;57.90
40374;DHT22;26079;45.958;12.492;2023-09-07T14:00:22;29.00;59.40
40374;DHT22;26079;45.958;12.492;2023-09-07T14:02:48;29.00;60.30
40374;DHT22;26079;45.958;12.492;2023-09-07T14:05:14;29.00;58.60
40374;DHT22;26079;45.958;12.492;2023-09-07T14:07:40;29.00;58.90
40374;DHT22;26079;45.958;12.492;2023-09-07T14:10:06;29.00;60.30
40374;DHT22;26079;45.958;12.492;2023-09-07T14:12:31;28.90;58.80
40374;DHT22;26079;45.958;12.492;2023-09-07T14:14:57;28.90;60.30
40374;DHT22;26079;45.958;12.492;2023-09-07T14:17:23;28.90;58.90
40374;DHT22;26079;45.958;12.492;2023-09-07T14:19:48;28.90;59.20
40374;DHT22;26079;45.958;12.492;2023-09-07T14:22:14;28.80;58.40
40374;DHT22;26079;45.958;12.492;2023-09-07T14:24:40;28.70;60.00
40374;DHT22;26079;45.958;12.492;2023-09-07T14:27:06;28.70;59.20
40374;DHT22;26079;45.958;12.492;2023-09-07T14:29:31;28.70;58.90
40374;DHT22;26079;45.958;12.492;2023-09-07T14:31:57;28.70;59.60
40374;DHT22;26079;45.958;12.492;2023-09-07T14:34:23;28.80;59.40
40374;DHT22;26079;45.958;12.492;2023-09-07T14:36:48;28.80;60.40
40374;DHT22;26079;45.958;12.492;2023-09-07T14:39:14;28.80;59.10
40374;DHT22;26079;45.958;12.492;2023-09-07T14:41:41;28.80;59.60
40374;DHT22;26079;45.958;12.492;2023-09-07T14:44:08;28.80;59.40
40374;DHT22;26079;45.958;12.492;2023-09-07T14:46:35;28.90;59.70
40374;DHT22;26079;45.958;12.492;2023-09-07T14:49:01;28.90;59.30
40374;DHT22;26079;45.958;12.492;2023-09-07T14:51:27;28.90;59.30
40374;DHT22;26079;45.958;12.492;2023-09-07T14:53:53;28.90;59.50
40374;DHT22;26079;45.958;12.492;2023-09-07T14:56:19;29.00;60.30
40374;DHT22;26079;45.958;12.492;2023-09-07T14:58:45;28.90;58.80
40374;DHT22;26079;45.958;12.492;2023-09-07T15:01:11;28.90;59.40
40374;DHT22;26079;45.958;12.492;2023-09-07T15:03:37;28.80;59.40
40374;DHT22;26079;45.958;12.492;2023-09-07T15:06:07;28.90;58.20
40374;DHT22;26079;45.958;12.492;2023-09-07T15:08:37;28.80;58.30
40374;DHT22;26079;45.958;12.492;2023-09-07T15:11:03;28.70;58.70
40374;DHT22;26079;45.958;12.492;2023-09-07T15:13:28;28.70;58.30